createdAt,value
2018-12-16T00:01:36.993Z,23.33
2018-12-16T00:04:05.338Z,21.40
2018-12-16T00:06:33.778Z,25.20
2018-12-16T00:09:05.378Z,23.20
2018-12-16T00:11:33.908Z,19.23
2018-12-16T00:14:02.474Z,23.63
2018-12-16T00:16:30.865Z,22.00
2018-12-16T00:18:59.305Z,21.63
2018-12-16T00:21:27.805Z,23.13
2018-12-16T00:23:56.911Z,23.50
2018-12-16T00:26:34.133Z,22.67
2018-12-16T00:29:02.889Z,21.90
2018-12-16T00:31:31.466Z,23.53
2018-12-16T00:33:59.936Z,25.87
2018-12-16T00:36:28.441Z,21.57
2018-12-16T00:38:56.773Z,23.30
2018-12-16T00:41:25.373Z,21.30
2018-12-16T00:43:53.865Z,23.77
2018-12-16T00:46:22.619Z,25.40
2018-12-16T00:48:51.333Z,19.57
2018-12-16T00:51:19.821Z,24.80
2018-12-16T00:53:48.317Z,21.13
2018-12-16T00:56:17.301Z,22.53
2018-12-16T00:58:45.645Z,22.23
2018-12-16T01:01:13.966Z,20.67
2018-12-16T01:03:42.425Z,21.70
2018-12-16T01:06:10.733Z,24.77
2018-12-16T01:08:39.193Z,22.97
2018-12-16T01:11:07.500Z,25.43
2018-12-16T01:13:35.945Z,23.77
2018-12-16T01:16:05.171Z,26.10
2018-12-16T01:18:33.501Z,23.07
2018-12-16T01:21:01.822Z,23.13
2018-12-16T01:23:30.162Z,23.10
2018-12-16T01:25:58.479Z,23.10
2018-12-16T01:28:26.798Z,25.80
2018-12-16T01:30:55.516Z,24.13
2018-12-16T01:33:24.029Z,21.67
2018-12-16T01:35:52.994Z,24.33
2018-12-16T01:38:22.013Z,22.80
2018-12-16T01:40:50.318Z,24.13
2018-12-16T01:43:18.658Z,24.53
2018-12-16T01:45:46.948Z,25.13
2018-12-16T01:48:15.294Z,23.37
2018-12-16T01:50:43.602Z,27.37
2018-12-16T01:53:12.372Z,24.30
2018-12-16T01:55:40.850Z,28.20
2018-12-16T01:58:10.377Z,23.93
2018-12-16T02:00:38.830Z,22.93
2018-12-16T02:03:07.194Z,27.17
2018-12-16T02:05:35.797Z,24.33
2018-12-16T02:08:04.269Z,25.73
2018-12-16T02:10:32.794Z,29.40
2018-12-16T02:13:01.141Z,26.30
2018-12-16T02:15:29.969Z,25.07
2018-12-16T02:17:58.309Z,25.60
2018-12-16T02:20:26.748Z,27.10
2018-12-16T02:22:56.912Z,32.23
2018-12-16T02:25:25.745Z,27.43
2018-12-16T02:27:54.182Z,30.10
2018-12-16T02:30:28.609Z,28.17
2018-12-16T02:32:57.101Z,24.43
2018-12-16T02:35:25.786Z,33.07
2018-12-16T02:37:54.225Z,27.47
2018-12-16T02:40:22.758Z,28.43
2018-12-16T02:42:51.219Z,28.47
2018-12-16T02:45:19.859Z,25.83
2018-12-16T02:47:49.233Z,28.20
2018-12-16T02:50:17.640Z,23.07
2018-12-16T02:52:45.938Z,30.90
2018-12-16T02:55:14.278Z,29.17
2018-12-16T02:57:42.591Z,30.00
2018-12-16T03:00:11.759Z,32.03
2018-12-16T03:02:40.095Z,26.03
2018-12-16T03:05:08.421Z,30.67
2018-12-16T03:07:37.059Z,30.07
2018-12-16T03:10:05.917Z,28.00
2018-12-16T03:12:34.529Z,20.07
2018-12-16T03:15:03.062Z,31.03
2018-12-16T03:17:31.356Z,27.60
2018-12-16T03:20:00.072Z,27.53
2018-12-16T03:22:28.438Z,27.93
2018-12-16T03:24:56.957Z,27.87
2018-12-16T03:27:25.661Z,31.70
2018-12-16T03:29:54.418Z,25.60
2018-12-16T03:32:22.922Z,32.33
2018-12-16T03:34:51.233Z,30.70
2018-12-16T03:37:19.886Z,31.40
2018-12-16T03:39:49.356Z,26.63
2018-12-16T03:42:17.881Z,27.77
2018-12-16T03:44:46.209Z,27.67
2018-12-16T03:47:14.832Z,25.83
2018-12-16T03:49:43.153Z,27.53
2018-12-16T03:52:11.794Z,23.97
2018-12-16T03:54:40.286Z,33.10
2018-12-16T03:57:08.623Z,26.53
2018-12-16T03:59:36.950Z,32.30
2018-12-16T04:02:05.743Z,31.33
2018-12-16T04:04:34.197Z,33.30
2018-12-16T04:07:02.697Z,28.27
2018-12-16T04:09:31.660Z,32.07
2018-12-16T04:12:00.004Z,30.60
2018-12-16T04:14:28.319Z,29.63
2018-12-16T04:16:56.641Z,31.77
2018-12-16T04:19:24.946Z,29.40
2018-12-16T04:21:53.267Z,25.13
2018-12-16T04:24:21.997Z,25.43
2018-12-16T04:26:50.338Z,22.93
2018-12-16T04:29:18.653Z,25.73
2018-12-16T04:31:47.006Z,31.47
2018-12-16T04:34:16.457Z,27.83
2018-12-16T04:36:45.498Z,32.03
2018-12-16T04:39:13.833Z,35.77
2018-12-16T04:41:42.456Z,30.90
2018-12-16T04:44:10.933Z,27.40
2018-12-16T04:46:39.259Z,24.20
2018-12-16T04:49:07.881Z,28.63
2018-12-16T04:51:36.387Z,30.57
2018-12-16T04:54:04.738Z,28.43
2018-12-16T04:56:33.343Z,27.93
2018-12-16T04:59:02.074Z,26.43
2018-12-16T05:01:30.493Z,28.83
2018-12-16T05:03:59.337Z,33.27
2018-12-16T05:06:27.770Z,26.40
2018-12-16T05:08:56.281Z,30.87
2018-12-16T05:11:24.581Z,25.00
2018-12-16T05:13:53.216Z,30.20
2018-12-16T05:16:21.542Z,29.03
2018-12-16T05:18:50.196Z,29.70
2018-12-16T05:21:18.667Z,28.97
2018-12-16T05:23:47.149Z,25.97
2018-12-16T05:26:15.609Z,27.90
2018-12-16T05:28:44.125Z,24.17
2018-12-16T05:31:12.461Z,27.10
2018-12-16T05:33:41.092Z,26.83
2018-12-16T05:36:09.547Z,25.10
2018-12-16T05:38:38.556Z,29.07
2018-12-16T05:41:07.011Z,31.10
2018-12-16T05:43:35.521Z,26.03
2018-12-16T05:46:03.996Z,27.53
2018-12-16T05:48:32.485Z,26.93
2018-12-16T05:51:00.817Z,26.03
2018-12-16T05:53:29.450Z,28.80
2018-12-16T05:55:57.794Z,25.17
2018-12-16T05:58:26.136Z,25.37
2018-12-16T06:00:54.441Z,26.03
2018-12-16T06:03:22.777Z,27.73
2018-12-16T06:05:51.325Z,29.60
2018-12-16T06:08:20.021Z,31.17
2018-12-16T06:10:48.801Z,28.00
2018-12-16T06:13:17.300Z,26.37
2018-12-16T06:15:45.612Z,27.67
2018-12-16T06:18:14.274Z,28.67
2018-12-16T06:20:42.689Z,26.70
2018-12-16T06:23:11.231Z,29.53
2018-12-16T06:25:39.541Z,25.40
2018-12-16T06:28:08.170Z,26.67
2018-12-16T06:30:38.352Z,28.73
2018-12-16T06:33:07.210Z,25.67
2018-12-16T06:35:35.668Z,28.07
2018-12-16T06:38:04.145Z,27.40
2018-12-16T06:40:32.715Z,26.90
2018-12-16T06:43:01.109Z,23.83
2018-12-16T06:45:29.457Z,25.33
2018-12-16T06:47:57.779Z,27.63
2018-12-16T06:50:26.218Z,25.73
2018-12-16T06:52:54.534Z,27.50
2018-12-16T06:55:22.862Z,22.77
2018-12-16T06:57:51.480Z,27.23
2018-12-16T07:00:19.997Z,27.17
2018-12-16T07:02:52.605Z,23.27
2018-12-16T07:05:21.171Z,23.90
2018-12-16T07:07:50.025Z,30.87
2018-12-16T07:10:19.121Z,33.80
2018-12-16T07:12:47.458Z,26.60
2018-12-16T07:15:15.786Z,24.10
2018-12-16T07:17:44.122Z,25.50
2018-12-16T07:20:12.433Z,24.87
2018-12-16T07:22:40.833Z,26.90
2018-12-16T07:25:09.301Z,29.10
2018-12-16T07:27:37.608Z,25.80
2018-12-16T07:30:07.133Z,25.63
2018-12-16T07:32:35.463Z,23.07
2018-12-16T07:35:03.940Z,27.00
2018-12-16T07:37:32.332Z,24.90
2018-12-16T07:40:00.837Z,24.03
2018-12-16T07:42:29.162Z,27.20
2018-12-16T07:44:57.789Z,24.67
2018-12-16T07:47:26.261Z,28.03
2018-12-16T07:49:54.599Z,25.87
2018-12-16T07:52:23.242Z,28.10
2018-12-16T07:54:52.229Z,36.00
2018-12-16T07:57:20.528Z,36.57
2018-12-16T07:59:48.878Z,37.83
2018-12-16T08:02:17.257Z,35.30
2018-12-16T08:04:45.560Z,39.77
2018-12-16T08:07:14.494Z,36.20
2018-12-16T08:09:43.085Z,32.40
2018-12-16T08:12:11.598Z,32.73
2018-12-16T08:14:39.917Z,36.07
2018-12-16T08:17:08.561Z,30.97
2018-12-16T08:19:37.685Z,28.63
2018-12-16T08:22:06.046Z,26.50
2018-12-16T08:24:34.492Z,23.37
2018-12-16T08:27:03.010Z,25.20
2018-12-16T08:29:32.073Z,25.30
2018-12-16T08:32:00.481Z,23.27
2018-12-16T08:34:29.453Z,28.10
2018-12-16T08:36:58.465Z,25.03
2018-12-16T08:39:26.923Z,23.13
2018-12-16T08:41:55.429Z,25.97
2018-12-16T08:44:23.873Z,24.90
2018-12-16T08:46:52.383Z,25.63
2018-12-16T08:49:20.844Z,23.77
2018-12-16T08:51:49.370Z,25.63
2018-12-16T08:54:17.817Z,34.90
2018-12-16T08:56:46.284Z,29.23
2018-12-16T08:59:14.919Z,29.33
2018-12-16T09:01:43.287Z,25.23
2018-12-16T09:04:12.340Z,23.93
2018-12-16T09:06:40.710Z,27.60
2018-12-16T09:09:09.998Z,31.80
2018-12-16T09:11:38.323Z,28.57
2018-12-16T09:14:06.633Z,27.10
2018-12-16T09:16:35.193Z,31.33
2018-12-16T09:19:03.785Z,29.80
2018-12-16T09:21:32.162Z,34.73
2018-12-16T09:24:00.632Z,26.37
2018-12-16T09:26:29.261Z,32.00
2018-12-16T09:28:58.626Z,26.77
2018-12-16T09:31:26.961Z,24.50
2018-12-16T09:33:55.278Z,36.87
2018-12-16T09:36:23.596Z,25.90
2018-12-16T09:38:52.621Z,32.83
2018-12-16T09:41:20.925Z,29.97
2018-12-16T09:43:49.277Z,45.93
2018-12-16T09:46:17.663Z,26.17
2018-12-16T09:48:46.023Z,24.57
2018-12-16T09:51:14.313Z,35.27
2018-12-16T09:53:42.662Z,34.63
2018-12-16T09:56:10.946Z,31.90
2018-12-16T09:58:39.910Z,32.10
2018-12-16T10:01:08.461Z,28.87
2018-12-16T10:03:36.809Z,25.83
2018-12-16T10:06:05.143Z,26.63
2018-12-16T10:08:37.998Z,26.27
2018-12-16T10:11:06.450Z,29.33
2018-12-16T10:13:35.031Z,24.63
2018-12-16T10:16:03.362Z,27.63
2018-12-16T10:18:31.821Z,24.87
2018-12-16T10:21:00.126Z,26.63
2018-12-16T10:23:28.437Z,28.47
2018-12-16T10:25:56.782Z,23.73
2018-12-16T10:28:25.093Z,26.00
2018-12-16T10:30:53.415Z,27.50
2018-12-16T10:33:22.513Z,25.20
2018-12-16T10:35:51.193Z,25.97
2018-12-16T10:38:19.715Z,32.00
2018-12-16T10:40:48.060Z,26.77
2018-12-16T10:43:16.349Z,29.40
2018-12-16T10:45:45.147Z,23.27
2018-12-16T10:48:14.127Z,28.70
2018-12-16T10:50:42.445Z,25.23
2018-12-16T10:53:10.770Z,23.40
2018-12-16T10:55:39.114Z,25.47
2018-12-16T10:58:08.221Z,30.70
2018-12-16T11:00:41.972Z,25.33
2018-12-16T11:03:12.317Z,29.03
2018-12-16T11:05:41.137Z,26.63
2018-12-16T11:08:09.469Z,29.37
2018-12-16T11:10:39.209Z,24.30
2018-12-16T11:13:08.733Z,24.97
2018-12-16T11:15:37.189Z,29.53
2018-12-16T11:18:05.509Z,26.57
2018-12-16T11:20:34.128Z,30.10
2018-12-16T11:23:02.561Z,24.83
2018-12-16T11:25:31.619Z,30.90
2018-12-16T11:27:59.925Z,30.17
2018-12-16T11:30:28.279Z,22.13
2018-12-16T11:32:56.589Z,27.70
2018-12-16T11:35:24.921Z,24.80
2018-12-16T11:37:54.117Z,26.30
2018-12-16T11:40:22.565Z,21.93
2018-12-16T11:42:50.880Z,20.43
2018-12-16T11:45:19.450Z,19.47
2018-12-16T11:47:48.081Z,24.00
2018-12-16T11:50:16.414Z,20.97
2018-12-16T11:52:44.921Z,27.07
2018-12-16T11:55:13.506Z,22.93
2018-12-16T11:57:41.838Z,23.17
2018-12-16T12:00:11.357Z,20.20
2018-12-16T12:02:39.665Z,21.57
2018-12-16T12:05:07.981Z,20.10
2018-12-16T12:07:36.333Z,19.00
2018-12-16T12:10:05.933Z,19.97
2018-12-16T12:12:34.266Z,21.53
2018-12-16T12:15:02.570Z,19.03
2018-12-16T12:17:31.263Z,22.30
2018-12-16T12:19:59.734Z,20.17
2018-12-16T12:22:28.233Z,20.27
2018-12-16T12:24:56.685Z,18.77
2018-12-16T12:27:25.830Z,17.23
2018-12-16T12:29:54.441Z,17.33
2018-12-16T12:32:22.782Z,21.97
2018-12-16T12:34:51.645Z,69.30
2018-12-16T12:37:19.982Z,31.20
2018-12-16T12:39:49.129Z,20.13
2018-12-16T12:42:17.617Z,16.43
2018-12-16T12:44:45.938Z,18.13
2018-12-16T12:47:14.245Z,13.73
2018-12-16T12:49:45.150Z,18.33
2018-12-16T12:52:13.072Z,17.57
2018-12-16T12:54:42.141Z,18.57
2018-12-16T12:57:10.438Z,17.00
2018-12-16T12:59:38.918Z,18.23
2018-12-16T13:02:07.626Z,17.43
2018-12-16T13:04:35.999Z,16.73
2018-12-16T13:07:04.991Z,20.20
2018-12-16T13:09:33.605Z,15.13
2018-12-16T13:12:01.954Z,14.00
2018-12-16T13:14:30.233Z,12.47
2018-12-16T13:16:58.913Z,10.43
2018-12-16T13:19:27.349Z,14.97
2018-12-16T13:21:56.586Z,11.13
2018-12-16T13:24:25.005Z,14.30
2018-12-16T13:26:53.816Z,10.30
2018-12-16T13:29:22.118Z,11.77
2018-12-16T13:31:50.402Z,10.27
2018-12-16T13:34:18.689Z,10.27
2018-12-16T13:36:47.899Z,10.93
2018-12-16T13:39:16.845Z,10.40
2018-12-16T13:41:45.133Z,12.73
2018-12-16T13:44:13.424Z,16.23
2018-12-16T13:46:41.681Z,13.33
2018-12-16T13:49:10.218Z,12.60
2018-12-16T13:51:38.706Z,13.97
2018-12-16T13:54:06.989Z,13.47
2018-12-16T13:56:35.265Z,12.93
2018-12-16T13:59:03.881Z,15.47
2018-12-16T14:01:32.590Z,13.63
2018-12-16T14:04:01.414Z,15.90
2018-12-16T14:06:29.686Z,11.60
2018-12-16T14:08:58.055Z,20.60
2018-12-16T14:11:26.573Z,15.77
2018-12-16T14:14:16.700Z,16.27
2018-12-16T14:19:49.349Z,11.23
2018-12-16T14:22:17.802Z,13.67
2018-12-16T14:24:46.305Z,14.37
2018-12-16T14:27:15.383Z,13.20
2018-12-16T14:29:44.837Z,11.77
2018-12-16T14:32:13.453Z,13.70
2018-12-16T14:34:42.023Z,14.33
2018-12-16T14:37:10.325Z,14.10
2018-12-16T14:39:38.597Z,14.70
2018-12-16T14:42:07.150Z,16.80
2018-12-16T14:44:35.681Z,12.40
2018-12-16T14:47:03.983Z,12.97
2018-12-16T14:49:32.745Z,12.53
2018-12-16T14:52:15.965Z,13.47
2018-12-16T14:54:44.234Z,14.00
2018-12-16T14:57:12.526Z,11.87
2018-12-16T14:59:41.405Z,12.97
2018-12-16T15:02:09.911Z,14.07
2018-12-16T15:04:38.197Z,16.83
2018-12-16T15:07:07.011Z,14.37
2018-12-16T15:09:35.342Z,15.77
2018-12-16T15:12:03.855Z,11.40
2018-12-16T15:14:32.825Z,16.27
2018-12-16T15:17:01.122Z,17.23
2018-12-16T15:19:29.382Z,28.73
2018-12-16T15:21:57.694Z,14.67
2018-12-16T15:24:25.961Z,19.23
2018-12-16T15:26:54.306Z,16.73
2018-12-16T15:29:22.585Z,12.23
2018-12-16T15:31:50.883Z,15.73
2018-12-16T15:34:19.154Z,15.73
2018-12-16T15:36:47.582Z,15.10
2018-12-16T15:39:15.981Z,14.07
2018-12-16T15:41:44.265Z,11.43
2018-12-16T15:44:12.554Z,14.13
2018-12-16T15:46:41.270Z,20.30
2018-12-16T15:49:10.680Z,17.13
2018-12-16T15:51:39.124Z,19.03
2018-12-16T15:54:08.434Z,18.80
2018-12-16T15:56:36.745Z,21.20
2018-12-16T15:59:05.243Z,17.30
2018-12-16T16:01:33.566Z,21.47
2018-12-16T16:04:01.947Z,27.63
2018-12-16T16:06:30.453Z,20.53
2018-12-16T16:08:58.761Z,27.70
2018-12-16T16:11:27.169Z,22.40
2018-12-16T16:13:55.449Z,19.90
2018-12-16T16:16:24.021Z,20.93
2018-12-16T16:18:52.274Z,21.27
2018-12-16T16:21:20.825Z,19.37
2018-12-16T16:23:49.294Z,19.90
2018-12-16T16:26:17.758Z,23.30
2018-12-16T16:28:47.315Z,16.30
2018-12-16T16:31:15.594Z,31.70
2018-12-16T16:33:44.329Z,24.20
2018-12-16T16:36:12.721Z,16.70
2018-12-16T16:38:41.497Z,21.60
2018-12-16T16:41:10.222Z,21.80
2018-12-16T16:43:39.210Z,21.80
2018-12-16T16:46:07.682Z,17.57
2018-12-16T16:48:36.165Z,11.63
2018-12-16T16:51:04.557Z,12.20
2018-12-16T16:53:33.140Z,10.53
2018-12-16T16:56:01.417Z,13.43
2018-12-16T16:58:30.105Z,13.73
2018-12-16T17:00:58.438Z,12.63
2018-12-16T17:03:27.176Z,11.13
2018-12-16T17:05:55.469Z,11.77
2018-12-16T17:08:24.044Z,10.17
2018-12-16T17:10:52.514Z,13.37
2018-12-16T17:13:20.829Z,16.50
2018-12-16T17:15:49.089Z,12.57
2018-12-16T17:18:17.509Z,12.90
2018-12-16T17:20:45.926Z,12.67
2018-12-16T17:23:14.567Z,13.47
2018-12-16T17:25:48.276Z,9.97
2018-12-16T17:28:13.157Z,7.90
2018-12-16T17:30:41.553Z,11.77
2018-12-16T17:33:09.891Z,12.63
2018-12-16T17:35:38.321Z,14.57
2018-12-16T17:38:06.618Z,17.43
2018-12-16T17:40:35.153Z,14.23
2018-12-16T17:43:03.809Z,14.10
2018-12-16T17:45:32.101Z,12.33
2018-12-16T17:48:00.392Z,11.80
2018-12-16T17:50:28.687Z,14.23
2018-12-16T17:52:57.188Z,11.83
2018-12-16T17:55:25.497Z,17.97
2018-12-16T17:57:53.762Z,16.70
2018-12-16T18:00:22.769Z,18.03
2018-12-16T18:02:51.037Z,19.20
2018-12-16T18:05:19.346Z,12.40
2018-12-16T18:07:47.630Z,18.87
2018-12-16T18:10:15.925Z,14.70
2018-12-16T18:12:44.530Z,18.00
2018-12-16T18:15:13.041Z,16.43
2018-12-16T18:17:41.498Z,18.50
2018-12-16T18:20:10.278Z,18.13
2018-12-16T18:22:38.581Z,19.23
2018-12-16T18:25:07.076Z,14.60
2018-12-16T18:27:35.427Z,16.97
2018-12-16T18:30:06.085Z,17.63
2018-12-16T18:32:34.394Z,14.97
2018-12-16T18:35:02.701Z,15.53
2018-12-16T18:37:31.113Z,13.07
2018-12-16T18:39:59.478Z,12.00
2018-12-16T18:42:27.757Z,16.63
2018-12-16T18:44:56.337Z,14.57
2018-12-16T18:47:24.845Z,12.37
2018-12-16T18:49:53.337Z,12.70
2018-12-16T18:52:21.786Z,15.53
2018-12-16T18:54:50.073Z,19.90
2018-12-16T18:57:18.361Z,16.40
2018-12-16T18:59:46.658Z,14.50
2018-12-16T19:02:14.969Z,14.00
2018-12-16T19:04:43.249Z,15.73
2018-12-16T19:07:11.675Z,14.80
2018-12-16T19:13:10.698Z,15.47
2018-12-16T19:15:39.120Z,13.97
2018-12-16T19:18:07.391Z,76.93
2018-12-16T19:20:35.656Z,13.27
2018-12-16T19:23:03.965Z,13.40
2018-12-16T19:25:32.478Z,14.57
2018-12-16T19:28:00.777Z,10.17
2018-12-16T19:30:29.061Z,10.27
2018-12-16T19:32:57.632Z,9.73
2018-12-16T19:35:26.049Z,10.63
2018-12-16T19:37:54.519Z,10.50
2018-12-16T19:40:22.923Z,10.67
2018-12-16T19:42:51.850Z,10.00
2018-12-16T19:45:20.584Z,10.03
2018-12-16T19:47:50.366Z,10.80
2018-12-16T19:50:20.363Z,11.60
2018-12-16T19:52:48.695Z,12.03
2018-12-16T19:55:17.573Z,17.70
2018-12-16T19:57:45.910Z,13.43
2018-12-16T20:00:15.546Z,14.53
2018-12-16T20:02:44.288Z,16.30
2018-12-16T20:05:17.822Z,15.40
2018-12-16T20:07:47.078Z,15.93
2018-12-16T20:10:15.585Z,15.77
2018-12-16T20:12:44.117Z,17.60
2018-12-16T20:15:13.902Z,15.90
2018-12-16T20:17:42.185Z,20.40
2018-12-16T20:20:10.566Z,24.87
2018-12-16T20:22:38.849Z,19.87
2018-12-16T20:25:07.497Z,19.97
2018-12-16T20:27:35.881Z,18.90
2018-12-16T20:30:05.402Z,19.40
2018-12-16T20:32:34.019Z,19.07
2018-12-16T20:35:02.558Z,17.40
2018-12-16T20:37:30.833Z,15.30
2018-12-16T20:39:59.101Z,13.07
2018-12-16T20:42:27.394Z,16.83
2018-12-16T20:44:55.668Z,14.13
2018-12-16T20:47:23.961Z,15.43
2018-12-16T20:49:52.222Z,19.30
2018-12-16T20:52:20.526Z,13.80
2018-12-16T20:54:49.585Z,9.37
2018-12-16T20:57:19.058Z,11.90
2018-12-16T20:59:48.555Z,8.93
2018-12-16T21:02:18.209Z,8.97
2018-12-16T21:04:47.058Z,9.07
2018-12-16T21:07:16.151Z,12.63
2018-12-16T21:09:45.382Z,10.00
2018-12-16T21:12:20.010Z,8.97
2018-12-16T21:14:53.594Z,9.17
2018-12-16T21:17:27.837Z,8.33
2018-12-16T21:19:56.639Z,6.90
2018-12-16T21:22:25.552Z,6.97
2018-12-16T21:24:55.558Z,8.40
2018-12-16T21:27:26.362Z,10.00
2018-12-16T21:29:55.777Z,7.03
2018-12-16T21:32:26.544Z,9.93
2018-12-16T21:34:56.978Z,15.03
2018-12-16T21:37:27.195Z,16.33
2018-12-16T21:39:59.289Z,15.70
2018-12-16T21:42:30.285Z,14.00
2018-12-16T21:44:59.975Z,13.90
2018-12-16T21:47:31.768Z,13.37
2018-12-16T21:50:03.009Z,16.43
2018-12-16T21:52:34.022Z,21.47
2018-12-16T21:55:02.375Z,19.70
2018-12-16T21:57:33.226Z,19.87
2018-12-16T22:00:00.945Z,18.80
2018-12-16T22:02:30.666Z,56.90
2018-12-16T22:05:00.070Z,18.00
2018-12-16T22:07:29.767Z,10.23
2018-12-16T22:09:59.212Z,11.83
2018-12-16T22:12:27.712Z,13.83
2018-12-16T22:14:57.056Z,9.73
2018-12-16T22:17:27.158Z,12.10
2018-12-16T22:19:56.871Z,12.10
2018-12-16T22:22:26.314Z,12.47
2018-12-16T22:25:00.926Z,13.77
2018-12-16T22:27:30.429Z,14.90
2018-12-16T22:30:01.058Z,12.40
2018-12-16T22:32:30.472Z,15.60
2018-12-16T22:35:01.375Z,13.77
2018-12-16T22:37:29.989Z,11.33
2018-12-16T22:40:00.845Z,11.87
2018-12-16T22:42:31.986Z,11.90
2018-12-16T22:45:01.400Z,10.33
2018-12-16T22:47:33.826Z,10.53
2018-12-16T22:50:05.293Z,9.03
2018-12-16T22:52:34.743Z,10.47
2018-12-16T22:55:06.251Z,12.00
2018-12-16T22:57:34.837Z,11.40
2018-12-16T23:00:05.348Z,12.83
2018-12-16T23:02:34.626Z,11.70
2018-12-16T23:05:04.451Z,12.63
2018-12-16T23:07:34.783Z,17.57
2018-12-16T23:10:04.587Z,15.67
2018-12-16T23:12:34.317Z,13.10
2018-12-16T23:15:02.993Z,15.47
2018-12-16T23:17:31.281Z,12.67
2018-12-16T23:20:05.225Z,13.50
2018-12-16T23:22:33.894Z,9.17
2018-12-16T23:25:02.437Z,9.07
2018-12-16T23:27:30.925Z,9.70
2018-12-16T23:29:59.398Z,9.20
2018-12-16T23:32:27.908Z,11.30
2018-12-16T23:34:56.174Z,15.50
2018-12-16T23:37:24.478Z,14.37
2018-12-16T23:39:52.754Z,16.57
2018-12-16T23:42:21.037Z,16.03
2018-12-16T23:44:49.353Z,14.77
2018-12-16T23:47:17.777Z,9.97
2018-12-16T23:49:46.217Z,8.93
2018-12-16T23:52:14.729Z,8.30
2018-12-16T23:54:44.470Z,7.63
2018-12-16T23:57:13.177Z,7.47
2018-12-16T23:59:41.442Z,8.90
